createdAt,value
2022-12-04T00:01:30.790Z,5.40
2022-12-04T00:06:33.927Z,5.41
2022-12-04T00:11:35.728Z,5.40
2022-12-04T00:16:37.351Z,5.40
2022-12-04T00:21:39.190Z,5.41
2022-12-04T00:26:40.767Z,5.41
2022-12-04T00:31:42.401Z,5.41
2022-12-04T00:36:44.232Z,5.44
2022-12-04T00:41:45.780Z,5.45
2022-12-04T00:46:47.273Z,5.46
2022-12-04T00:51:48.856Z,5.46
2022-12-04T00:56:50.459Z,5.45
2022-12-04T01:01:51.980Z,5.45
2022-12-04T01:06:53.500Z,5.43
2022-12-04T01:11:55.040Z,5.39
2022-12-04T01:16:56.969Z,5.40
2022-12-04T01:21:58.682Z,5.42
2022-12-04T01:27:00.229Z,5.43
2022-12-04T01:32:01.860Z,5.45
2022-12-04T01:37:03.551Z,5.46
2022-12-04T01:42:05.217Z,5.46
2022-12-04T01:47:06.833Z,5.47
2022-12-04T01:52:25.057Z,5.47
2022-12-04T01:57:31.810Z,5.45
2022-12-04T02:02:36.496Z,5.43
2022-12-04T02:07:40.077Z,5.44
2022-12-04T02:13:15.873Z,5.45
2022-12-04T02:18:41.042Z,5.41
2022-12-04T02:24:07.441Z,5.40
2022-12-04T02:29:17.370Z,5.38
2022-12-04T02:34:27.026Z,5.37
2022-12-04T02:39:41.390Z,5.38
2022-12-04T02:44:47.341Z,5.40
2022-12-04T02:49:59.814Z,5.39
2022-12-04T02:55:08.783Z,5.40
2022-12-04T03:00:11.541Z,5.43
2022-12-04T03:05:24.966Z,5.44
2022-12-04T03:10:32.892Z,5.46
2022-12-04T03:15:41.667Z,5.42
2022-12-04T03:20:47.384Z,5.43
2022-12-04T03:26:16.965Z,5.46
2022-12-04T03:31:28.935Z,5.47
2022-12-04T03:36:46.376Z,5.49
2022-12-04T03:42:07.489Z,5.48
2022-12-04T03:47:19.664Z,5.51
2022-12-04T03:52:24.648Z,5.52
2022-12-04T03:57:32.261Z,5.55
2022-12-04T04:02:38.587Z,5.54
2022-12-04T04:08:21.391Z,5.54
2022-12-04T04:13:46.728Z,5.54
2022-12-04T04:19:09.389Z,5.55
2022-12-04T04:24:25.914Z,5.56
2022-12-04T04:29:27.757Z,5.56
2022-12-04T04:34:36.989Z,5.56
2022-12-04T04:40:17.616Z,5.57
2022-12-04T04:45:28.649Z,5.57
2022-12-04T04:50:33.105Z,5.58
2022-12-04T04:55:36.088Z,5.60
2022-12-04T05:00:39.271Z,5.62
2022-12-04T05:05:40.806Z,5.63
2022-12-04T05:10:42.566Z,5.64
2022-12-04T05:15:44.314Z,5.65
2022-12-04T05:20:45.944Z,5.67
2022-12-04T05:25:47.489Z,5.69
2022-12-04T05:30:58.386Z,5.68
2022-12-04T05:36:03.300Z,5.70
2022-12-04T05:41:06.233Z,5.69
2022-12-04T05:46:08.860Z,5.70
2022-12-04T05:51:10.866Z,5.70
2022-12-04T05:56:12.403Z,5.70
2022-12-04T06:01:18.362Z,5.72
2022-12-04T06:06:23.765Z,5.72
2022-12-04T06:11:29.363Z,5.71
2022-12-04T06:16:35.200Z,5.73
2022-12-04T06:21:38.861Z,5.73
2022-12-04T06:26:57.556Z,5.75
2022-12-04T06:32:02.314Z,5.75
2022-12-04T06:37:03.953Z,5.78
2022-12-04T06:42:05.528Z,5.77
2022-12-04T06:47:08.527Z,5.80
2022-12-04T06:52:10.227Z,5.80
2022-12-04T06:57:11.709Z,5.82
2022-12-04T07:02:18.278Z,5.84
2022-12-04T07:07:25.165Z,5.80
2022-12-04T07:12:29.188Z,5.80
2022-12-04T07:17:30.689Z,5.80
2022-12-04T07:22:35.952Z,5.80
2022-12-04T07:27:37.558Z,5.81
2022-12-04T07:32:42.759Z,5.80
2022-12-04T07:37:50.077Z,5.80
2022-12-04T07:42:53.941Z,5.80
2022-12-04T07:47:57.938Z,5.83
2022-12-04T07:53:01.515Z,5.86
2022-12-04T07:58:03.028Z,5.89
2022-12-04T08:03:07.520Z,5.88
2022-12-04T08:08:09.805Z,5.89
2022-12-04T08:13:14.228Z,5.93
2022-12-04T08:18:20.752Z,5.95
2022-12-04T08:23:31.268Z,5.99
2022-12-04T08:28:36.461Z,6.03
2022-12-04T08:33:41.295Z,6.06
2022-12-04T08:38:51.018Z,6.12
2022-12-04T08:43:59.567Z,6.16
2022-12-04T08:49:06.699Z,6.15
2022-12-04T08:54:08.985Z,6.17
2022-12-04T08:59:13.305Z,6.20
2022-12-04T09:04:18.479Z,6.25
2022-12-04T09:09:20.074Z,6.25
2022-12-04T09:14:25.716Z,6.25
2022-12-04T09:19:27.369Z,6.27
2022-12-04T09:24:34.817Z,6.29
2022-12-04T09:29:42.588Z,6.38
2022-12-04T09:34:52.664Z,6.44
2022-12-04T09:39:55.773Z,6.50
2022-12-04T09:45:21.321Z,6.53
2022-12-04T09:50:31.756Z,6.55
2022-12-04T09:55:58.518Z,6.60
2022-12-04T10:01:11.874Z,6.67
2022-12-04T10:06:29.469Z,6.71
2022-12-04T10:11:49.126Z,6.74
2022-12-04T10:17:33.120Z,6.70
2022-12-04T10:22:56.764Z,6.74
2022-12-04T10:28:04.376Z,6.77
2022-12-04T10:33:19.192Z,6.83
2022-12-04T10:38:47.756Z,6.88
2022-12-04T10:43:51.651Z,6.91
2022-12-04T10:49:21.212Z,6.93
2022-12-04T10:54:35.397Z,6.90
2022-12-04T10:59:58.925Z,6.87
2022-12-04T11:05:05.056Z,6.91
2022-12-04T11:10:33.129Z,6.97
2022-12-04T11:15:49.272Z,7.01
2022-12-04T11:21:03.546Z,7.09
2022-12-04T11:26:13.202Z,7.22
2022-12-04T11:31:20.928Z,7.29
2022-12-04T11:36:30.417Z,7.35
2022-12-04T11:41:40.398Z,7.37
2022-12-04T11:46:56.969Z,7.42
2022-12-04T11:52:26.692Z,7.47
2022-12-04T11:57:42.699Z,7.47
2022-12-04T12:03:09.915Z,7.44
2022-12-04T12:08:36.075Z,7.53
2022-12-04T12:13:53.468Z,7.58
2022-12-04T12:19:42.402Z,7.66
2022-12-04T12:24:55.099Z,7.77
2022-12-04T12:30:01.967Z,7.90
2022-12-04T12:35:22.137Z,8.01
2022-12-04T12:40:49.442Z,8.09
2022-12-04T12:46:15.780Z,8.16
2022-12-04T12:51:40.572Z,8.25
2022-12-04T12:56:50.977Z,8.31
2022-12-04T13:02:33.938Z,8.37
2022-12-04T13:08:00.232Z,8.41
2022-12-04T13:13:22.478Z,8.43
2022-12-04T13:18:30.593Z,8.45
2022-12-04T13:24:04.075Z,8.50
2022-12-04T13:29:25.613Z,8.53
2022-12-04T13:34:56.365Z,8.54
2022-12-04T13:40:09.140Z,8.53
2022-12-04T13:45:23.467Z,8.56
2022-12-04T13:50:38.824Z,8.53
2022-12-04T13:55:45.731Z,8.54
2022-12-04T14:01:03.857Z,8.51
2022-12-04T14:06:26.857Z,8.43
2022-12-04T14:11:33.080Z,8.36
2022-12-04T14:16:49.061Z,8.30
2022-12-04T14:21:55.119Z,8.26
2022-12-04T14:27:11.117Z,8.28
2022-12-04T14:32:25.761Z,8.31
2022-12-04T14:37:50.927Z,8.34
2022-12-04T14:42:55.107Z,8.37
2022-12-04T14:48:22.283Z,8.38
2022-12-04T14:53:33.346Z,8.34
2022-12-04T14:58:44.094Z,8.33
2022-12-04T15:03:48.851Z,8.35
2022-12-04T15:09:21.783Z,8.34
2022-12-04T15:14:25.734Z,8.31
2022-12-04T15:19:36.180Z,8.30
2022-12-04T15:24:40.514Z,8.27
2022-12-04T15:29:52.837Z,8.26
2022-12-04T15:35:05.303Z,8.27
2022-12-04T15:40:24.879Z,8.20
2022-12-04T15:45:34.285Z,8.21
2022-12-04T15:50:37.899Z,8.20
2022-12-04T15:55:53.107Z,8.19
2022-12-04T16:01:10.743Z,8.21
2022-12-04T16:06:22.192Z,8.18
2022-12-04T16:11:43.765Z,8.16
2022-12-04T16:16:50.383Z,8.16
2022-12-04T16:22:03.746Z,8.19
2022-12-04T16:27:20.024Z,8.22
2022-12-04T16:32:31.848Z,8.27
2022-12-04T16:37:40.641Z,8.28
2022-12-04T16:42:48.035Z,8.29
2022-12-04T16:48:02.470Z,8.28
2022-12-04T16:53:13.715Z,8.28
2022-12-04T16:58:16.420Z,8.30
2022-12-04T17:03:26.964Z,8.28
2022-12-04T17:08:36.154Z,8.28
2022-12-04T17:13:42.435Z,8.28
2022-12-04T17:18:56.235Z,8.28
2022-12-04T17:24:03.445Z,8.30
2022-12-04T17:29:13.231Z,8.28
2022-12-04T17:34:16.109Z,8.30
2022-12-04T17:39:22.376Z,8.31
2022-12-04T17:44:29.486Z,8.31
2022-12-04T17:49:31.337Z,8.32
2022-12-04T17:54:34.303Z,8.30
2022-12-04T17:59:38.018Z,8.32
2022-12-04T18:04:44.478Z,8.32
2022-12-04T18:09:48.157Z,8.32
2022-12-04T18:14:58.217Z,8.34
2022-12-04T18:20:04.312Z,8.33
2022-12-04T18:25:09.785Z,8.33
2022-12-04T18:30:13.778Z,8.35
2022-12-04T18:35:21.465Z,8.35
2022-12-04T18:40:23.041Z,8.35
2022-12-04T18:45:26.724Z,8.35
2022-12-04T18:50:30.798Z,8.37
2022-12-04T18:55:37.401Z,8.38
2022-12-04T19:00:46.396Z,8.37
2022-12-04T19:05:53.525Z,8.38
2022-12-04T19:10:56.110Z,8.39
2022-12-04T19:16:10.340Z,8.41
2022-12-04T19:21:17.320Z,8.40
2022-12-04T19:26:18.983Z,8.40
2022-12-04T19:31:30.753Z,8.41
2022-12-04T19:36:33.842Z,8.40
2022-12-04T19:41:42.739Z,8.39
2022-12-04T19:46:46.742Z,8.39
2022-12-04T19:51:50.381Z,8.37
2022-12-04T19:56:59.550Z,8.38
2022-12-04T20:02:06.117Z,8.38
2022-12-04T20:07:10.005Z,8.36
2022-12-04T20:12:22.810Z,8.37
2022-12-04T20:17:32.513Z,8.37
2022-12-04T20:22:36.964Z,8.37
2022-12-04T20:27:42.816Z,8.39
2022-12-04T20:32:48.929Z,8.38
2022-12-04T20:37:57.605Z,8.38
2022-12-04T20:43:03.008Z,8.35
2022-12-04T20:48:07.863Z,8.32
2022-12-04T20:53:14.322Z,8.32
2022-12-04T20:58:23.948Z,8.34
2022-12-04T21:03:25.502Z,8.35
2022-12-04T21:08:53.425Z,8.34
2022-12-04T21:14:17.621Z,8.34
2022-12-04T21:19:21.352Z,8.33
2022-12-04T21:24:36.927Z,8.34
2022-12-04T21:29:48.143Z,8.35
2022-12-04T21:34:50.132Z,8.37
2022-12-04T21:39:51.742Z,8.38
2022-12-04T21:44:58.116Z,8.38
2022-12-04T21:50:02.154Z,8.39
2022-12-04T21:55:06.544Z,8.39
2022-12-04T22:00:11.836Z,8.40
2022-12-04T22:05:20.914Z,8.39
2022-12-04T22:10:26.094Z,8.40
2022-12-04T22:15:41.349Z,8.39
2022-12-04T22:20:49.848Z,8.38
2022-12-04T22:25:56.457Z,8.38
2022-12-04T22:31:04.483Z,8.38
2022-12-04T22:36:20.712Z,8.39
2022-12-04T22:41:23.928Z,8.38
2022-12-04T22:46:27.957Z,8.38
2022-12-04T22:51:34.314Z,8.38
2022-12-04T22:56:39.221Z,8.38
2022-12-04T23:01:47.482Z,8.38
2022-12-04T23:06:51.384Z,8.34
2022-12-04T23:11:54.701Z,8.34
2022-12-04T23:17:05.191Z,8.34
2022-12-04T23:22:14.605Z,8.35
2022-12-04T23:27:23.435Z,8.37
2022-12-04T23:32:27.677Z,8.36
2022-12-04T23:37:37.504Z,8.36
2022-12-04T23:42:44.742Z,8.36
2022-12-04T23:47:48.468Z,8.36
2022-12-04T23:52:50.536Z,8.35
2022-12-04T23:57:57.496Z,8.36
